createdAt,value
2023-04-25T00:01:49.292Z,13.39
2023-04-25T00:04:17.190Z,13.38
2023-04-25T00:06:45.025Z,13.32
2023-04-25T00:09:12.524Z,13.21
2023-04-25T00:11:41.449Z,12.83
2023-04-25T00:14:09.050Z,12.99
2023-04-25T00:16:37.127Z,13.15
2023-04-25T00:19:11.628Z,13.31
2023-04-25T00:21:41.630Z,13.12
2023-04-25T00:24:09.515Z,12.77
2023-04-25T00:26:37.189Z,12.75
2023-04-25T00:29:04.621Z,12.80
2023-04-25T00:31:32.143Z,12.83
2023-04-25T00:33:59.512Z,12.61
2023-04-25T00:36:27.092Z,12.52
2023-04-25T00:38:56.011Z,12.65
2023-04-25T00:41:24.898Z,12.35
2023-04-25T00:43:54.867Z,12.50
2023-04-25T00:46:22.571Z,12.66
2023-04-25T00:48:49.879Z,12.37
2023-04-25T00:51:24.505Z,12.24
2023-04-25T00:53:52.679Z,12.44
2023-04-25T00:56:22.421Z,12.57
2023-04-25T00:58:51.526Z,12.59
2023-04-25T01:01:19.291Z,12.42
2023-04-25T01:03:47.973Z,12.42
2023-04-25T01:06:15.720Z,12.44
2023-04-25T01:08:43.016Z,12.48
2023-04-25T01:11:10.565Z,12.30
2023-04-25T01:13:37.864Z,12.40
2023-04-25T01:16:05.993Z,12.63
2023-04-25T01:18:33.370Z,12.74
2023-04-25T01:21:11.119Z,12.66
2023-04-25T01:23:41.913Z,12.67
2023-04-25T01:26:13.530Z,12.77
2023-04-25T01:28:42.511Z,12.81
2023-04-25T01:31:11.546Z,12.70
2023-04-25T01:33:38.968Z,12.77
2023-04-25T01:36:07.222Z,12.60
2023-04-25T01:38:34.944Z,12.76
2023-04-25T01:41:02.800Z,12.75
2023-04-25T01:43:30.329Z,12.70
2023-04-25T01:45:58.592Z,12.71
2023-04-25T01:48:26.070Z,12.60
2023-04-25T01:50:53.659Z,12.54
2023-04-25T01:53:21.160Z,12.61
2023-04-25T01:55:48.675Z,12.53
2023-04-25T01:58:16.381Z,12.64
2023-04-25T02:00:43.926Z,12.61
2023-04-25T02:03:11.350Z,12.65
2023-04-25T02:05:41.485Z,12.64
2023-04-25T02:08:11.504Z,12.54
2023-04-25T02:10:39.407Z,12.41
2023-04-25T02:13:06.708Z,12.35
2023-04-25T02:15:34.381Z,12.29
2023-04-25T02:18:01.960Z,12.33
2023-04-25T02:20:31.691Z,12.24
2023-04-25T02:22:58.974Z,12.17
2023-04-25T02:25:26.858Z,12.17
2023-04-25T02:27:54.985Z,12.20
2023-04-25T02:30:22.623Z,12.12
2023-04-25T02:32:50.011Z,12.19
2023-04-25T02:35:17.808Z,12.17
2023-04-25T02:37:45.126Z,12.13
2023-04-25T02:40:13.001Z,12.16
2023-04-25T02:42:40.328Z,11.94
2023-04-25T02:45:08.822Z,11.86
2023-04-25T02:47:36.133Z,11.70
2023-04-25T02:50:04.562Z,11.65
2023-04-25T02:52:33.221Z,11.78
2023-04-25T02:55:01.210Z,11.71
2023-04-25T02:57:28.528Z,11.79
2023-04-25T02:59:56.601Z,11.73
2023-04-25T03:02:25.217Z,11.49
2023-04-25T03:04:55.277Z,11.41
2023-04-25T03:07:22.704Z,11.48
2023-04-25T03:09:50.282Z,11.49
2023-04-25T03:12:17.960Z,11.62
2023-04-25T03:14:47.718Z,11.55
2023-04-25T03:17:15.296Z,11.52
2023-04-25T03:19:44.335Z,11.65
2023-04-25T03:22:14.474Z,11.74
2023-04-25T03:24:42.308Z,11.77
2023-04-25T03:27:10.774Z,11.68
2023-04-25T03:29:38.391Z,11.79
2023-04-25T03:32:05.908Z,11.88
2023-04-25T03:34:33.475Z,11.90
2023-04-25T03:37:01.106Z,11.89
2023-04-25T03:39:28.696Z,11.93
2023-04-25T03:41:56.258Z,11.85
2023-04-25T03:44:25.502Z,11.84
2023-04-25T03:46:52.780Z,11.84
2023-04-25T03:49:20.427Z,11.66
2023-04-25T03:51:49.287Z,11.70
2023-04-25T03:54:16.878Z,11.70
2023-04-25T03:56:44.150Z,11.74
2023-04-25T03:59:11.805Z,11.44
2023-04-25T04:01:39.036Z,11.42
2023-04-25T04:04:06.798Z,11.64
2023-04-25T04:06:34.283Z,11.68
2023-04-25T04:09:01.772Z,11.69
2023-04-25T04:11:28.999Z,11.75
2023-04-25T04:13:56.510Z,11.67
2023-04-25T04:16:23.941Z,11.43
2023-04-25T04:18:51.547Z,11.63
2023-04-25T04:21:18.888Z,11.81
2023-04-25T04:23:47.690Z,11.80
2023-04-25T04:26:17.396Z,11.86
2023-04-25T04:28:47.961Z,11.68
2023-04-25T04:31:18.048Z,11.77
2023-04-25T04:33:45.873Z,11.82
2023-04-25T04:36:13.347Z,11.74
2023-04-25T04:38:43.419Z,11.84
2023-04-25T04:41:10.857Z,11.54
2023-04-25T04:43:38.534Z,11.65
2023-04-25T04:46:06.068Z,11.61
2023-04-25T04:48:35.410Z,11.81
2023-04-25T04:51:02.672Z,11.83
2023-04-25T04:53:30.222Z,12.02
2023-04-25T04:55:57.453Z,11.83
2023-04-25T04:58:24.965Z,12.16
2023-04-25T05:00:52.251Z,12.27
2023-04-25T05:03:20.201Z,12.26
2023-04-25T05:05:48.303Z,12.31
2023-04-25T05:08:15.968Z,12.32
2023-04-25T05:10:43.346Z,12.40
2023-04-25T05:13:11.038Z,12.58
2023-04-25T05:15:38.311Z,12.38
2023-04-25T05:18:06.221Z,12.45
2023-04-25T05:20:33.573Z,12.65
2023-04-25T05:23:01.240Z,12.39
2023-04-25T05:25:28.544Z,12.56
2023-04-25T05:27:56.134Z,12.70
2023-04-25T05:30:23.492Z,12.58
2023-04-25T05:32:51.575Z,12.78
2023-04-25T05:35:19.023Z,13.09
2023-04-25T05:37:46.635Z,13.14
2023-04-25T05:40:14.262Z,13.34
2023-04-25T05:42:41.803Z,13.30
2023-04-25T05:45:09.460Z,13.55
2023-04-25T05:47:37.055Z,13.47
2023-04-25T05:50:04.852Z,13.29
2023-04-25T05:52:32.528Z,13.52
2023-04-25T05:54:59.757Z,13.56
2023-04-25T05:57:28.801Z,13.70
2023-04-25T05:59:56.114Z,13.71
2023-04-25T06:02:23.932Z,13.79
2023-04-25T06:04:52.464Z,13.71
2023-04-25T06:07:23.275Z,13.76
2023-04-25T06:09:50.773Z,13.39
2023-04-25T06:12:18.372Z,13.37
2023-04-25T06:14:45.671Z,13.54
2023-04-25T06:17:13.256Z,13.47
2023-04-25T06:19:40.611Z,13.56
2023-04-25T06:22:09.400Z,13.65
2023-04-25T06:24:36.940Z,13.67
2023-04-25T06:27:04.473Z,13.61
2023-04-25T06:29:31.839Z,13.70
2023-04-25T06:31:59.341Z,13.81
2023-04-25T06:34:26.969Z,13.80
2023-04-25T06:36:54.524Z,13.67
2023-04-25T06:39:24.283Z,13.77
2023-04-25T06:41:52.314Z,13.80
2023-04-25T06:44:19.569Z,13.53
2023-04-25T06:46:47.147Z,13.74
2023-04-25T06:49:14.364Z,13.81
2023-04-25T06:51:42.457Z,13.77
2023-04-25T06:54:09.711Z,13.86
2023-04-25T06:56:37.314Z,13.77
2023-04-25T06:59:04.588Z,13.72
2023-04-25T07:01:32.207Z,13.86
2023-04-25T07:03:59.700Z,14.08
2023-04-25T07:06:28.860Z,14.22
2023-04-25T07:08:56.880Z,14.14
2023-04-25T07:11:24.482Z,14.26
2023-04-25T07:13:51.714Z,14.51
2023-04-25T07:16:19.316Z,14.58
2023-04-25T07:18:46.553Z,14.10
2023-04-25T07:21:14.112Z,14.27
2023-04-25T07:23:41.906Z,14.14
2023-04-25T07:26:09.499Z,14.50
2023-04-25T07:28:36.836Z,14.63
2023-04-25T07:31:04.596Z,14.78
2023-04-25T07:33:32.152Z,14.93
2023-04-25T07:35:59.754Z,15.08
2023-04-25T07:38:27.559Z,15.29
2023-04-25T07:40:55.204Z,15.43
2023-04-25T07:43:22.637Z,15.48
2023-04-25T07:45:50.290Z,15.29
2023-04-25T07:48:20.897Z,15.49
2023-04-25T07:50:48.505Z,15.58
2023-04-25T07:53:16.952Z,15.82
2023-04-25T07:55:44.712Z,15.96
2023-04-25T07:58:13.369Z,16.46
2023-04-25T08:00:42.822Z,16.53
2023-04-25T08:03:11.146Z,16.73
2023-04-25T08:05:39.119Z,16.94
2023-04-25T08:08:07.736Z,17.35
2023-04-25T08:10:35.667Z,17.63
2023-04-25T08:13:03.597Z,18.23
2023-04-25T08:15:31.424Z,18.02
2023-04-25T08:17:59.166Z,18.12
2023-04-25T08:20:27.405Z,18.60
2023-04-25T08:22:54.927Z,18.89
2023-04-25T08:25:22.538Z,18.95
2023-04-25T08:27:50.001Z,19.29
2023-04-25T08:30:17.660Z,19.79
2023-04-25T08:32:45.232Z,19.51
2023-04-25T08:35:12.975Z,19.46
2023-04-25T08:37:40.337Z,19.45
2023-04-25T08:40:13.305Z,18.86
2023-04-25T08:42:43.542Z,19.05
2023-04-25T08:45:11.916Z,19.36
2023-04-25T08:47:41.062Z,19.98
2023-04-25T08:50:09.212Z,20.74
2023-04-25T08:52:49.228Z,21.06
2023-04-25T08:55:17.897Z,21.86
2023-04-25T08:57:46.074Z,21.25
2023-04-25T09:00:14.491Z,21.27
2023-04-25T09:02:44.297Z,21.12
2023-04-25T09:05:15.192Z,21.22
2023-04-25T09:07:42.680Z,20.94
2023-04-25T09:10:10.853Z,20.15
2023-04-25T09:12:38.713Z,20.10
2023-04-25T09:15:20.472Z,19.38
2023-04-25T09:17:58.090Z,18.69
2023-04-25T09:20:26.276Z,18.15
2023-04-25T09:23:06.403Z,18.12
2023-04-25T09:25:40.363Z,17.96
2023-04-25T09:28:08.226Z,18.09
2023-04-25T09:30:37.891Z,18.66
2023-04-25T09:33:12.366Z,18.84
2023-04-25T09:35:43.455Z,19.04
2023-04-25T09:38:13.906Z,18.90
2023-04-25T09:40:47.335Z,17.70
2023-04-25T09:43:26.777Z,17.72
2023-04-25T09:45:59.169Z,16.40
2023-04-25T09:48:29.009Z,16.76
2023-04-25T09:51:15.615Z,16.84
2023-04-25T09:53:53.197Z,17.62
2023-04-25T09:56:23.511Z,19.24
2023-04-25T09:58:55.754Z,19.28
2023-04-25T10:01:24.769Z,18.83
2023-04-25T10:03:59.131Z,19.98
2023-04-25T10:06:29.387Z,20.89
2023-04-25T10:08:57.909Z,22.10
2023-04-25T10:11:28.095Z,25.82
2023-04-25T10:13:57.081Z,24.14
2023-04-25T10:16:26.183Z,23.49
2023-04-25T10:18:53.663Z,22.55
2023-04-25T10:21:22.832Z,21.60
2023-04-25T10:23:51.472Z,21.54
2023-04-25T10:26:20.035Z,20.86
2023-04-25T10:29:03.169Z,20.21
2023-04-25T10:31:32.315Z,20.49
2023-04-25T10:34:02.557Z,20.20
2023-04-25T10:36:33.796Z,19.82
2023-04-25T10:39:10.341Z,19.37
2023-04-25T10:41:59.082Z,18.35
2023-04-25T10:44:31.064Z,18.34
2023-04-25T10:47:01.641Z,18.53
2023-04-25T10:49:38.590Z,18.58
2023-04-25T10:52:16.615Z,19.08
2023-04-25T10:54:55.349Z,19.57
2023-04-25T10:57:45.112Z,19.43
2023-04-25T11:00:19.731Z,19.08
2023-04-25T11:02:58.784Z,19.34
2023-04-25T11:05:43.760Z,19.14
2023-04-25T11:08:41.995Z,18.63
2023-04-25T11:11:09.940Z,18.33
2023-04-25T11:13:37.660Z,18.65
2023-04-25T11:16:13.140Z,18.47
2023-04-25T11:18:46.025Z,18.25
2023-04-25T11:21:14.512Z,17.57
2023-04-25T11:23:42.165Z,18.27
2023-04-25T11:26:09.492Z,18.02
2023-04-25T11:28:37.155Z,18.06
2023-04-25T11:31:05.650Z,17.79
2023-04-25T11:33:33.283Z,17.97
2023-04-25T11:36:00.907Z,17.69
2023-04-25T11:38:29.504Z,17.74
2023-04-25T11:40:57.905Z,17.71
2023-04-25T11:43:26.993Z,17.73
2023-04-25T11:45:54.292Z,17.55
2023-04-25T11:48:24.114Z,17.82
2023-04-25T11:50:56.223Z,17.17
2023-04-25T11:53:25.848Z,17.17
2023-04-25T11:55:53.369Z,17.30
2023-04-25T11:58:21.645Z,16.90
2023-04-25T12:00:51.177Z,16.64
2023-04-25T12:03:20.383Z,16.65
2023-04-25T12:05:47.994Z,15.81
2023-04-25T12:08:17.443Z,15.93
2023-04-25T12:10:47.292Z,16.38
2023-04-25T12:13:29.290Z,16.45
2023-04-25T12:15:57.634Z,16.77
2023-04-25T12:18:28.938Z,17.01
2023-04-25T12:20:57.190Z,17.18
2023-04-25T12:23:29.356Z,17.11
2023-04-25T12:25:57.251Z,16.91
2023-04-25T12:28:28.702Z,16.97
2023-04-25T12:31:07.356Z,16.94
2023-04-25T12:33:40.471Z,16.91
2023-04-25T12:36:13.303Z,16.81
2023-04-25T12:38:43.498Z,16.99
2023-04-25T12:41:11.188Z,16.79
2023-04-25T12:43:38.734Z,16.70
2023-04-25T12:46:06.180Z,16.31
2023-04-25T12:48:33.962Z,15.67
2023-04-25T12:51:01.382Z,15.76
2023-04-25T12:53:28.956Z,16.39
2023-04-25T12:55:57.083Z,16.72
2023-04-25T12:58:25.994Z,15.88
2023-04-25T13:00:53.316Z,16.34
2023-04-25T13:03:21.107Z,16.76
2023-04-25T13:05:48.543Z,16.94
2023-04-25T13:08:16.441Z,16.93
2023-04-25T13:10:43.820Z,17.17
2023-04-25T13:13:11.680Z,17.34
2023-04-25T13:15:38.954Z,17.25
2023-04-25T13:18:09.502Z,17.06
2023-04-25T13:20:36.930Z,17.19
2023-04-25T13:23:04.454Z,17.19
2023-04-25T13:25:31.725Z,17.41
2023-04-25T13:27:59.395Z,17.44
2023-04-25T13:30:26.848Z,17.21
2023-04-25T13:32:58.068Z,17.43
2023-04-25T13:35:25.738Z,17.45
2023-04-25T13:37:53.196Z,17.62
2023-04-25T13:40:20.542Z,17.72
2023-04-25T13:42:48.105Z,17.53
2023-04-25T13:45:16.080Z,17.74
2023-04-25T13:47:43.822Z,17.93
2023-04-25T13:50:11.649Z,17.99
2023-04-25T13:52:39.180Z,17.97
2023-04-25T13:55:08.434Z,17.97
2023-04-25T13:57:39.376Z,17.93
2023-04-25T14:00:15.421Z,17.95
2023-04-25T14:02:43.114Z,18.08
2023-04-25T14:05:10.746Z,18.22
2023-04-25T14:07:38.485Z,18.30
2023-04-25T14:10:06.976Z,18.34
2023-04-25T14:12:34.787Z,18.34
2023-04-25T14:15:02.047Z,18.76
2023-04-25T14:17:29.670Z,19.17
2023-04-25T14:19:57.226Z,19.37
2023-04-25T14:22:24.848Z,19.32
2023-04-25T14:24:52.232Z,19.32
2023-04-25T14:27:19.987Z,19.40
2023-04-25T14:29:47.397Z,19.18
2023-04-25T14:32:14.912Z,19.17
2023-04-25T14:34:42.186Z,19.17
2023-04-25T14:37:09.952Z,19.40
2023-04-25T14:39:37.891Z,18.93
2023-04-25T14:42:05.595Z,19.04
2023-04-25T14:44:32.912Z,18.98
2023-04-25T14:47:00.747Z,18.88
2023-04-25T14:49:29.300Z,18.94
2023-04-25T14:51:56.834Z,19.10
2023-04-25T14:54:24.089Z,18.82
2023-04-25T14:56:52.491Z,18.83
2023-04-25T14:59:20.866Z,18.87
2023-04-25T15:01:48.544Z,19.00
2023-04-25T15:04:16.482Z,19.04
2023-04-25T15:06:45.209Z,18.89
2023-04-25T15:09:14.119Z,18.78
2023-04-25T15:11:41.809Z,18.36
2023-04-25T15:14:09.291Z,17.99
2023-04-25T15:16:36.890Z,18.11
2023-04-25T15:19:04.975Z,18.08
2023-04-25T15:21:33.088Z,17.84
2023-04-25T15:24:01.031Z,17.99
2023-04-25T15:26:29.537Z,17.94
2023-04-25T15:28:56.985Z,18.15
2023-04-25T15:31:24.548Z,18.35
2023-04-25T15:33:52.102Z,18.46
2023-04-25T15:36:21.663Z,18.57
2023-04-25T15:38:49.000Z,18.56
2023-04-25T15:41:16.671Z,18.50
2023-04-25T15:43:43.916Z,18.37
2023-04-25T15:46:11.714Z,18.45
2023-04-25T15:48:39.019Z,18.41
2023-04-25T15:51:06.771Z,18.32
2023-04-25T15:53:34.047Z,17.94
2023-04-25T15:56:02.010Z,17.69
2023-04-25T15:58:29.210Z,17.44
2023-04-25T16:00:57.607Z,17.67
2023-04-25T16:03:25.085Z,17.65
2023-04-25T16:05:53.649Z,17.69
2023-04-25T16:08:21.459Z,17.78
2023-04-25T16:10:49.595Z,17.79
2023-04-25T16:13:16.892Z,17.35
2023-04-25T16:15:44.442Z,17.15
2023-04-25T16:18:12.010Z,17.02
2023-04-25T16:20:39.852Z,16.81
2023-04-25T16:23:07.099Z,16.05
2023-04-25T16:25:36.345Z,16.31
2023-04-25T16:28:03.650Z,16.28
2023-04-25T16:30:31.612Z,16.12
2023-04-25T16:32:59.100Z,16.10
2023-04-25T16:35:30.501Z,16.17
2023-04-25T16:37:58.336Z,16.15
2023-04-25T16:40:26.362Z,16.16
2023-04-25T16:42:53.724Z,16.22
2023-04-25T16:45:21.829Z,16.32
2023-04-25T16:47:49.167Z,16.19
2023-04-25T16:50:18.922Z,15.98
2023-04-25T16:52:46.352Z,15.93
2023-04-25T16:55:13.890Z,15.97
2023-04-25T16:57:41.366Z,16.02
2023-04-25T17:00:10.064Z,16.09
2023-04-25T17:02:39.095Z,15.92
2023-04-25T17:05:07.363Z,15.55
2023-04-25T17:07:34.708Z,15.50
2023-04-25T17:10:02.656Z,15.46
2023-04-25T17:12:30.786Z,15.28
2023-04-25T17:15:00.571Z,15.12
2023-04-25T17:17:28.410Z,14.93
2023-04-25T17:19:56.095Z,14.86
2023-04-25T17:22:24.450Z,14.73
2023-04-25T17:24:52.043Z,14.65
2023-04-25T17:27:19.364Z,14.23
2023-04-25T17:29:47.052Z,14.06
2023-04-25T17:32:17.277Z,14.26
2023-04-25T17:34:46.350Z,14.28
2023-04-25T17:37:16.409Z,14.26
2023-04-25T17:39:46.039Z,14.19
2023-04-25T17:42:14.678Z,14.16
2023-04-25T17:44:43.362Z,14.10
2023-04-25T17:47:11.709Z,14.08
2023-04-25T17:49:40.215Z,14.03
2023-04-25T17:52:07.595Z,13.98
2023-04-25T17:54:35.417Z,13.98
2023-04-25T17:57:02.702Z,13.85
2023-04-25T17:59:31.239Z,13.71
2023-04-25T18:02:00.079Z,13.50
2023-04-25T18:04:28.014Z,13.43
2023-04-25T18:06:55.778Z,13.50
2023-04-25T18:09:23.881Z,13.47
2023-04-25T18:11:53.641Z,13.34
2023-04-25T18:14:22.915Z,13.33
2023-04-25T18:16:54.913Z,12.91
2023-04-25T18:19:23.450Z,12.97
2023-04-25T18:21:54.528Z,12.93
2023-04-25T18:24:27.216Z,12.92
2023-04-25T18:26:57.030Z,12.68
2023-04-25T18:29:32.852Z,12.81
2023-04-25T18:32:00.985Z,12.64
2023-04-25T18:34:28.690Z,12.64
2023-04-25T18:36:56.909Z,12.62
2023-04-25T18:39:25.987Z,12.66
2023-04-25T18:42:01.592Z,12.52
2023-04-25T18:44:33.887Z,12.28
2023-04-25T18:47:01.327Z,12.25
2023-04-25T18:49:28.986Z,12.40
2023-04-25T18:51:57.533Z,12.56
2023-04-25T18:54:25.465Z,12.62
2023-04-25T18:56:55.703Z,12.56
2023-04-25T18:59:24.149Z,12.57
2023-04-25T19:01:53.608Z,12.61
2023-04-25T19:04:21.888Z,12.52
2023-04-25T19:06:51.482Z,12.54
2023-04-25T19:09:19.503Z,12.58
2023-04-25T19:11:47.244Z,12.50
2023-04-25T19:14:15.302Z,12.50
2023-04-25T19:16:42.801Z,12.55
2023-04-25T19:19:10.918Z,12.52
2023-04-25T19:21:38.566Z,12.48
2023-04-25T19:24:07.244Z,12.43
2023-04-25T19:26:35.535Z,12.43
2023-04-25T19:29:08.927Z,12.41
2023-04-25T19:31:38.040Z,12.41
2023-04-25T19:34:07.148Z,12.38
2023-04-25T19:36:37.118Z,12.40
2023-04-25T19:39:07.359Z,12.39
2023-04-25T19:41:37.613Z,12.47
2023-04-25T19:44:08.619Z,12.48
2023-04-25T19:46:37.644Z,12.49
2023-04-25T19:49:07.875Z,12.37
2023-04-25T19:51:36.672Z,12.33
2023-04-25T19:54:04.817Z,12.33
2023-04-25T19:56:32.639Z,12.30
2023-04-25T19:59:00.429Z,12.08
2023-04-25T20:01:28.081Z,12.13
2023-04-25T20:03:56.608Z,11.59
2023-04-25T20:06:24.199Z,11.76
2023-04-25T20:08:56.047Z,11.85
2023-04-25T20:11:23.489Z,11.87
2023-04-25T20:13:51.499Z,11.79
2023-04-25T20:16:19.953Z,11.93
2023-04-25T20:18:49.100Z,11.88
2023-04-25T20:21:17.681Z,11.94
2023-04-25T20:23:46.353Z,11.75
2023-04-25T20:26:14.277Z,11.59
2023-04-25T20:28:42.155Z,11.53
2023-04-25T20:31:11.590Z,11.74
2023-04-25T20:33:39.359Z,11.76
2023-04-25T20:36:06.901Z,11.62
2023-04-25T20:38:34.563Z,11.55
2023-04-25T20:41:02.246Z,11.59
2023-04-25T20:43:31.388Z,11.26
2023-04-25T20:46:00.468Z,11.34
2023-04-25T20:48:28.143Z,11.26
2023-04-25T20:50:55.528Z,11.07
2023-04-25T20:53:23.286Z,11.09
2023-04-25T20:55:50.602Z,11.04
2023-04-25T20:58:18.488Z,11.11
2023-04-25T21:00:47.585Z,10.89
2023-04-25T21:03:16.228Z,10.99
2023-04-25T21:05:43.761Z,11.13
2023-04-25T21:08:11.320Z,10.93
2023-04-25T21:10:38.705Z,11.14
2023-04-25T21:13:06.273Z,11.11
2023-04-25T21:15:33.805Z,11.24
2023-04-25T21:18:02.131Z,11.24
2023-04-25T21:20:29.553Z,11.34
2023-04-25T21:22:57.124Z,11.30
2023-04-25T21:25:30.245Z,11.30
2023-04-25T21:27:59.258Z,11.38
2023-04-25T21:30:27.434Z,11.34
2023-04-25T21:32:55.249Z,11.21
2023-04-25T21:35:23.351Z,11.29
2023-04-25T21:37:51.548Z,11.37
2023-04-25T21:40:19.665Z,11.40
2023-04-25T21:42:51.386Z,11.42
2023-04-25T21:45:20.111Z,11.33
2023-04-25T21:47:48.659Z,11.36
2023-04-25T21:50:17.087Z,11.33
2023-04-25T21:52:44.670Z,11.36
2023-04-25T21:55:11.996Z,11.38
2023-04-25T21:57:39.650Z,11.31
2023-04-25T22:00:21.354Z,11.35
2023-04-25T22:02:49.131Z,11.28
2023-04-25T22:05:17.506Z,11.19
2023-04-25T22:07:45.110Z,11.16
2023-04-25T22:10:12.498Z,10.85
2023-04-25T22:12:41.521Z,10.66
2023-04-25T22:15:09.630Z,10.72
2023-04-25T22:17:37.217Z,10.44
2023-04-25T22:20:14.399Z,10.63
2023-04-25T22:22:42.913Z,10.48
2023-04-25T22:25:12.592Z,10.53
2023-04-25T22:27:43.897Z,10.64
2023-04-25T22:30:15.489Z,10.76
2023-04-25T22:32:43.674Z,10.70
2023-04-25T22:35:11.766Z,10.78
2023-04-25T22:37:41.135Z,10.81
2023-04-25T22:40:11.747Z,10.69
2023-04-25T22:42:40.957Z,10.75
2023-04-25T22:45:09.902Z,10.47
2023-04-25T22:47:39.196Z,10.67
2023-04-25T22:50:13.153Z,10.77
2023-04-25T22:52:42.701Z,10.70
2023-04-25T22:55:12.442Z,10.68
2023-04-25T22:57:41.700Z,10.69
2023-04-25T23:00:20.089Z,10.22
2023-04-25T23:02:49.923Z,10.50
2023-04-25T23:05:17.516Z,10.40
2023-04-25T23:07:45.404Z,10.52
2023-04-25T23:10:15.760Z,10.60
2023-04-25T23:12:43.744Z,10.58
2023-04-25T23:15:12.531Z,10.48
2023-04-25T23:17:40.956Z,10.56
2023-04-25T23:20:11.071Z,10.55
2023-04-25T23:22:39.013Z,10.57
2023-04-25T23:25:07.900Z,10.64
2023-04-25T23:27:35.825Z,10.63
2023-04-25T23:30:03.422Z,10.64
2023-04-25T23:32:32.015Z,10.28
2023-04-25T23:34:59.359Z,10.51
2023-04-25T23:37:26.919Z,10.29
2023-04-25T23:39:54.260Z,10.24
2023-04-25T23:42:21.847Z,10.32
2023-04-25T23:44:49.239Z,10.34
2023-04-25T23:47:19.047Z,10.33
2023-04-25T23:49:46.659Z,10.39
2023-04-25T23:52:14.236Z,10.46
2023-04-25T23:54:41.523Z,10.55
2023-04-25T23:57:09.136Z,10.51
2023-04-25T23:59:36.392Z,10.41
